sensor_id;sensor_type;location;lat;lon;timestamp;temperature;humidity
69331;DHT22;56475;52.114;5.480;2022-08-19T00:01:25;16.80;80.90
69331;DHT22;56475;52.114;5.480;2022-08-19T00:03:58;16.80;81.20
69331;DHT22;56475;52.114;5.480;2022-08-19T00:06:27;16.80;81.60
69331;DHT22;56475;52.114;5.480;2022-08-19T00:08:55;16.70;81.60
69331;DHT22;56475;52.114;5.480;2022-08-19T00:11:23;16.70;81.10
69331;DHT22;56475;52.114;5.480;2022-08-19T00:13:52;16.70;81.50
69331;DHT22;56475;52.114;5.480;2022-08-19T00:16:19;16.60;81.40
69331;DHT22;56475;52.114;5.480;2022-08-19T00:18:52;16.60;81.00
69331;DHT22;56475;52.114;5.480;2022-08-19T00:21:20;16.60;80.90
69331;DHT22;56475;52.114;5.480;2022-08-19T00:23:47;16.50;81.00
69331;DHT22;56475;52.114;5.480;2022-08-19T00:26:14;16.50;81.90
69331;DHT22;56475;52.114;5.480;2022-08-19T00:28:41;16.70;82.50
69331;DHT22;56475;52.114;5.480;2022-08-19T00:31:09;16.40;81.60
69331;DHT22;56475;52.114;5.480;2022-08-19T00:33:36;16.40;82.40
69331;DHT22;56475;52.114;5.480;2022-08-19T00:36:05;16.40;82.00
69331;DHT22;56475;52.114;5.480;2022-08-19T00:38:38;16.40;82.90
69331;DHT22;56475;52.114;5.480;2022-08-19T00:41:14;16.40;83.90
69331;DHT22;56475;52.114;5.480;2022-08-19T00:43:41;16.40;83.20
69331;DHT22;56475;52.114;5.480;2022-08-19T00:46:08;16.40;83.60
69331;DHT22;56475;52.114;5.480;2022-08-19T00:48:36;16.30;82.10
69331;DHT22;56475;52.114;5.480;2022-08-19T00:51:04;16.30;82.50
69331;DHT22;56475;52.114;5.480;2022-08-19T00:53:32;16.20;82.90
69331;DHT22;56475;52.114;5.480;2022-08-19T00:56:02;16.30;82.70
69331;DHT22;56475;52.114;5.480;2022-08-19T00:58:32;16.20;83.30
69331;DHT22;56475;52.114;5.480;2022-08-19T01:01:01;16.20;83.40
69331;DHT22;56475;52.114;5.480;2022-08-19T01:03:28;16.20;82.70
69331;DHT22;56475;52.114;5.480;2022-08-19T01:06:16;16.10;82.70
69331;DHT22;56475;52.114;5.480;2022-08-19T01:08:46;16.10;83.00
69331;DHT22;56475;52.114;5.480;2022-08-19T01:11:16;16.20;83.00
69331;DHT22;56475;52.114;5.480;2022-08-19T01:13:44;16.10;83.10
69331;DHT22;56475;52.114;5.480;2022-08-19T01:16:17;16.10;83.40
69331;DHT22;56475;52.114;5.480;2022-08-19T01:18:44;16.10;84.40
69331;DHT22;56475;52.114;5.480;2022-08-19T01:23:49;16.00;84.10
69331;DHT22;56475;52.114;5.480;2022-08-19T01:26:19;16.00;83.10
69331;DHT22;56475;52.114;5.480;2022-08-19T01:28:48;16.00;84.40
69331;DHT22;56475;52.114;5.480;2022-08-19T01:31:21;15.90;83.90
69331;DHT22;56475;52.114;5.480;2022-08-19T01:33:55;15.20;84.00
69331;DHT22;56475;52.114;5.480;2022-08-19T01:36:38;15.80;84.20
69331;DHT22;56475;52.114;5.480;2022-08-19T01:39:09;15.80;85.10
69331;DHT22;56475;52.114;5.480;2022-08-19T01:41:37;15.80;85.30
69331;DHT22;56475;52.114;5.480;2022-08-19T01:44:07;15.80;83.40
69331;DHT22;56475;52.114;5.480;2022-08-19T01:46:46;15.80;84.40
69331;DHT22;56475;52.114;5.480;2022-08-19T01:49:15;15.70;84.40
69331;DHT22;56475;52.114;5.480;2022-08-19T01:51:43;15.70;84.10
69331;DHT22;56475;52.114;5.480;2022-08-19T01:54:12;15.60;83.60
69331;DHT22;56475;52.114;5.480;2022-08-19T01:56:57;15.70;84.70
69331;DHT22;56475;52.114;5.480;2022-08-19T01:59:25;15.60;84.70
69331;DHT22;56475;52.114;5.480;2022-08-19T02:01:52;15.60;83.60
69331;DHT22;56475;52.114;5.480;2022-08-19T02:04:19;15.60;83.90
69331;DHT22;56475;52.114;5.480;2022-08-19T02:06:47;15.40;83.70
69331;DHT22;56475;52.114;5.480;2022-08-19T02:09:14;15.60;84.00
69331;DHT22;56475;52.114;5.480;2022-08-19T02:11:42;15.50;84.10
69331;DHT22;56475;52.114;5.480;2022-08-19T02:14:10;15.50;84.30
69331;DHT22;56475;52.114;5.480;2022-08-19T02:16:37;15.50;84.40
69331;DHT22;56475;52.114;5.480;2022-08-19T02:19:04;15.50;84.60
69331;DHT22;56475;52.114;5.480;2022-08-19T02:21:32;15.50;85.10
69331;DHT22;56475;52.114;5.480;2022-08-19T02:23:59;15.50;85.30
69331;DHT22;56475;52.114;5.480;2022-08-19T02:26:26;15.50;85.00
69331;DHT22;56475;52.114;5.480;2022-08-19T02:28:54;15.50;85.00
69331;DHT22;56475;52.114;5.480;2022-08-19T02:31:23;15.50;85.50
69331;DHT22;56475;52.114;5.480;2022-08-19T02:33:52;15.40;85.90
69331;DHT22;56475;52.114;5.480;2022-08-19T02:36:24;15.30;85.40
69331;DHT22;56475;52.114;5.480;2022-08-19T02:38:52;15.40;86.00
69331;DHT22;56475;52.114;5.480;2022-08-19T02:41:28;15.40;85.00
69331;DHT22;56475;52.114;5.480;2022-08-19T02:43:57;15.40;86.50
69331;DHT22;56475;52.114;5.480;2022-08-19T02:46:46;15.30;85.60
69331;DHT22;56475;52.114;5.480;2022-08-19T02:49:13;15.30;85.80
69331;DHT22;56475;52.114;5.480;2022-08-19T02:51:45;15.40;84.70
69331;DHT22;56475;52.114;5.480;2022-08-19T02:54:13;15.20;85.70
69331;DHT22;56475;52.114;5.480;2022-08-19T02:56:41;15.20;85.60
69331;DHT22;56475;52.114;5.480;2022-08-19T02:59:09;15.30;85.50
69331;DHT22;56475;52.114;5.480;2022-08-19T03:01:38;15.30;85.40
69331;DHT22;56475;52.114;5.480;2022-08-19T03:04:09;15.20;85.80
69331;DHT22;56475;52.114;5.480;2022-08-19T03:06:39;15.20;86.30
69331;DHT22;56475;52.114;5.480;2022-08-19T03:09:06;15.20;86.00
69331;DHT22;56475;52.114;5.480;2022-08-19T03:11:33;15.20;85.20
69331;DHT22;56475;52.114;5.480;2022-08-19T03:14:02;15.00;85.20
69331;DHT22;56475;52.114;5.480;2022-08-19T03:16:31;15.00;86.00
69331;DHT22;56475;52.114;5.480;2022-08-19T03:19:00;15.00;86.20
69331;DHT22;56475;52.114;5.480;2022-08-19T03:21:30;15.00;85.60
69331;DHT22;56475;52.114;5.480;2022-08-19T03:24:00;15.00;86.70
69331;DHT22;56475;52.114;5.480;2022-08-19T03:26:27;15.10;86.40
69331;DHT22;56475;52.114;5.480;2022-08-19T03:28:54;15.10;85.60
69331;DHT22;56475;52.114;5.480;2022-08-19T03:31:26;15.00;85.40
69331;DHT22;56475;52.114;5.480;2022-08-19T03:34:18;15.00;86.70
69331;DHT22;56475;52.114;5.480;2022-08-19T03:36:46;14.90;87.00
69331;DHT22;56475;52.114;5.480;2022-08-19T03:39:14;15.00;87.80
69331;DHT22;56475;52.114;5.480;2022-08-19T03:41:42;15.00;86.00
69331;DHT22;56475;52.114;5.480;2022-08-19T03:44:19;14.90;87.00
69331;DHT22;56475;52.114;5.480;2022-08-19T03:46:50;15.00;87.60
69331;DHT22;56475;52.114;5.480;2022-08-19T03:49:19;14.90;87.20
69331;DHT22;56475;52.114;5.480;2022-08-19T03:51:48;14.90;86.60
69331;DHT22;56475;52.114;5.480;2022-08-19T03:54:18;14.90;87.30
69331;DHT22;56475;52.114;5.480;2022-08-19T03:56:48;14.90;87.60
69331;DHT22;56475;52.114;5.480;2022-08-19T03:59:28;14.90;88.40
69331;DHT22;56475;52.114;5.480;2022-08-19T04:01:57;15.00;87.80
69331;DHT22;56475;52.114;5.480;2022-08-19T04:04:25;14.90;87.40
69331;DHT22;56475;52.114;5.480;2022-08-19T04:06:55;14.90;87.10
69331;DHT22;56475;52.114;5.480;2022-08-19T04:09:23;14.90;87.10
69331;DHT22;56475;52.114;5.480;2022-08-19T04:11:54;15.00;86.30
69331;DHT22;56475;52.114;5.480;2022-08-19T04:14:24;14.90;87.70
69331;DHT22;56475;52.114;5.480;2022-08-19T04:16:52;14.90;87.60
69331;DHT22;56475;52.114;5.480;2022-08-19T04:19:19;14.80;87.30
69331;DHT22;56475;52.114;5.480;2022-08-19T04:21:49;14.80;87.10
69331;DHT22;56475;52.114;5.480;2022-08-19T04:24:17;14.80;87.70
69331;DHT22;56475;52.114;5.480;2022-08-19T04:26:45;14.80;87.20
69331;DHT22;56475;52.114;5.480;2022-08-19T04:29:18;14.80;86.80
69331;DHT22;56475;52.114;5.480;2022-08-19T04:31:45;14.80;87.20
69331;DHT22;56475;52.114;5.480;2022-08-19T04:34:14;14.70;86.20
69331;DHT22;56475;52.114;5.480;2022-08-19T04:36:45;14.70;87.30
69331;DHT22;56475;52.114;5.480;2022-08-19T04:39:14;14.70;88.00
69331;DHT22;56475;52.114;5.480;2022-08-19T04:41:43;14.60;87.70
69331;DHT22;56475;52.114;5.480;2022-08-19T04:44:31;14.60;87.00
69331;DHT22;56475;52.114;5.480;2022-08-19T04:47:01;14.60;87.90
69331;DHT22;56475;52.114;5.480;2022-08-19T04:49:37;14.60;87.20
69331;DHT22;56475;52.114;5.480;2022-08-19T04:52:04;14.50;87.30
69331;DHT22;56475;52.114;5.480;2022-08-19T04:54:31;14.50;87.00
69331;DHT22;56475;52.114;5.480;2022-08-19T04:57:08;14.50;87.20
69331;DHT22;56475;52.114;5.480;2022-08-19T04:59:38;14.60;88.70
69331;DHT22;56475;52.114;5.480;2022-08-19T05:02:07;14.50;88.70
69331;DHT22;56475;52.114;5.480;2022-08-19T05:04:35;14.50;88.20
69331;DHT22;56475;52.114;5.480;2022-08-19T05:07:07;14.60;87.50
69331;DHT22;56475;52.114;5.480;2022-08-19T05:09:34;14.60;88.20
69331;DHT22;56475;52.114;5.480;2022-08-19T05:12:21;14.60;87.40
69331;DHT22;56475;52.114;5.480;2022-08-19T05:14:55;14.60;87.50
69331;DHT22;56475;52.114;5.480;2022-08-19T05:17:24;14.70;87.40
69331;DHT22;56475;52.114;5.480;2022-08-19T05:19:55;14.60;87.90
69331;DHT22;56475;52.114;5.480;2022-08-19T05:22:42;14.70;87.40
69331;DHT22;56475;52.114;5.480;2022-08-19T05:25:13;14.70;88.60
69331;DHT22;56475;52.114;5.480;2022-08-19T05:27:41;14.80;89.20
69331;DHT22;56475;52.114;5.480;2022-08-19T05:30:10;14.90;88.50
69331;DHT22;56475;52.114;5.480;2022-08-19T05:32:38;14.90;88.50
69331;DHT22;56475;52.114;5.480;2022-08-19T05:35:06;15.00;88.10
69331;DHT22;56475;52.114;5.480;2022-08-19T05:37:33;15.00;88.10
69331;DHT22;56475;52.114;5.480;2022-08-19T05:40:00;15.60;88.10
69331;DHT22;56475;52.114;5.480;2022-08-19T05:42:28;15.20;87.60
69331;DHT22;56475;52.114;5.480;2022-08-19T05:44:55;15.30;87.80
69331;DHT22;56475;52.114;5.480;2022-08-19T05:47:23;15.40;88.10
69331;DHT22;56475;52.114;5.480;2022-08-19T05:49:50;15.50;88.00
69331;DHT22;56475;52.114;5.480;2022-08-19T05:52:18;15.60;88.10
69331;DHT22;56475;52.114;5.480;2022-08-19T05:54:52;15.60;89.00
69331;DHT22;56475;52.114;5.480;2022-08-19T05:57:24;15.80;88.60
69331;DHT22;56475;52.114;5.480;2022-08-19T05:59:51;15.90;88.70
69331;DHT22;56475;52.114;5.480;2022-08-19T06:02:28;15.90;88.20
69331;DHT22;56475;52.114;5.480;2022-08-19T06:04:57;16.20;89.00
69331;DHT22;56475;52.114;5.480;2022-08-19T06:07:24;16.20;87.60
69331;DHT22;56475;52.114;5.480;2022-08-19T06:09:52;16.40;88.00
69331;DHT22;56475;52.114;5.480;2022-08-19T06:12:31;16.50;87.90
69331;DHT22;56475;52.114;5.480;2022-08-19T06:15:07;16.70;89.40
69331;DHT22;56475;52.114;5.480;2022-08-19T06:17:35;16.80;88.90
69331;DHT22;56475;52.114;5.480;2022-08-19T06:20:07;16.90;87.70
69331;DHT22;56475;52.114;5.480;2022-08-19T06:22:47;17.00;88.90
69331;DHT22;56475;52.114;5.480;2022-08-19T06:25:16;17.30;88.80
69331;DHT22;56475;52.114;5.480;2022-08-19T06:27:44;17.30;87.20
69331;DHT22;56475;52.114;5.480;2022-08-19T06:30:31;17.40;87.80
69331;DHT22;56475;52.114;5.480;2022-08-19T06:32:59;17.60;87.50
69331;DHT22;56475;52.114;5.480;2022-08-19T06:35:26;17.80;87.60
69331;DHT22;56475;52.114;5.480;2022-08-19T06:37:53;17.90;87.40
69331;DHT22;56475;52.114;5.480;2022-08-19T06:40:21;18.00;87.30
69331;DHT22;56475;52.114;5.480;2022-08-19T06:42:48;18.20;87.40
69331;DHT22;56475;52.114;5.480;2022-08-19T06:45:20;18.40;87.30
69331;DHT22;56475;52.114;5.480;2022-08-19T06:47:51;18.50;87.00
69331;DHT22;56475;52.114;5.480;2022-08-19T06:50:25;18.60;86.80
69331;DHT22;56475;52.114;5.480;2022-08-19T06:52:52;18.80;87.60
69331;DHT22;56475;52.114;5.480;2022-08-19T06:55:21;18.90;86.30
69331;DHT22;56475;52.114;5.480;2022-08-19T06:57:48;19.00;86.10
69331;DHT22;56475;52.114;5.480;2022-08-19T07:00:17;19.20;85.80
69331;DHT22;56475;52.114;5.480;2022-08-19T07:02:45;19.30;85.70
69331;DHT22;56475;52.114;5.480;2022-08-19T07:05:23;19.40;85.50
69331;DHT22;56475;52.114;5.480;2022-08-19T07:07:50;19.50;85.10
69331;DHT22;56475;52.114;5.480;2022-08-19T07:10:17;19.60;84.60
69331;DHT22;56475;52.114;5.480;2022-08-19T07:12:45;19.70;84.30
69331;DHT22;56475;52.114;5.480;2022-08-19T07:15:13;19.70;84.00
69331;DHT22;56475;52.114;5.480;2022-08-19T07:17:40;19.70;83.80
69331;DHT22;56475;52.114;5.480;2022-08-19T07:20:09;19.70;83.50
69331;DHT22;56475;52.114;5.480;2022-08-19T07:22:37;19.70;83.60
69331;DHT22;56475;52.114;5.480;2022-08-19T07:25:07;19.80;83.40
69331;DHT22;56475;52.114;5.480;2022-08-19T07:27:35;19.90;83.30
69331;DHT22;56475;52.114;5.480;2022-08-19T07:30:03;19.90;83.30
69331;DHT22;56475;52.114;5.480;2022-08-19T07:32:31;19.90;83.20
69331;DHT22;56475;52.114;5.480;2022-08-19T07:34:59;20.00;82.80
69331;DHT22;56475;52.114;5.480;2022-08-19T07:37:27;20.10;82.80
69331;DHT22;56475;52.114;5.480;2022-08-19T07:40:00;20.10;82.20
69331;DHT22;56475;52.114;5.480;2022-08-19T07:42:27;20.20;82.20
69331;DHT22;56475;52.114;5.480;2022-08-19T07:44:57;20.20;81.90
69331;DHT22;56475;52.114;5.480;2022-08-19T07:47:25;20.30;81.70
69331;DHT22;56475;52.114;5.480;2022-08-19T07:50:15;20.40;81.30
69331;DHT22;56475;52.114;5.480;2022-08-19T07:52:42;20.50;81.10
69331;DHT22;56475;52.114;5.480;2022-08-19T07:55:16;20.50;80.60
69331;DHT22;56475;52.114;5.480;2022-08-19T07:58:03;20.60;80.70
69331;DHT22;56475;52.114;5.480;2022-08-19T08:00:32;20.60;80.10
69331;DHT22;56475;52.114;5.480;2022-08-19T08:02:59;20.70;80.00
69331;DHT22;56475;52.114;5.480;2022-08-19T08:05:26;20.80;79.70
69331;DHT22;56475;52.114;5.480;2022-08-19T08:08:14;20.80;79.50
69331;DHT22;56475;52.114;5.480;2022-08-19T08:11:00;20.90;79.30
69331;DHT22;56475;52.114;5.480;2022-08-19T08:13:27;21.00;78.80
69331;DHT22;56475;52.114;5.480;2022-08-19T08:15:55;21.10;78.60
69331;DHT22;56475;52.114;5.480;2022-08-19T08:18:26;21.20;77.90
69331;DHT22;56475;52.114;5.480;2022-08-19T08:20:57;21.30;78.40
69331;DHT22;56475;52.114;5.480;2022-08-19T08:23:25;21.40;77.20
69331;DHT22;56475;52.114;5.480;2022-08-19T08:25:55;21.40;76.80
69331;DHT22;56475;52.114;5.480;2022-08-19T08:28:26;21.50;76.50
69331;DHT22;56475;52.114;5.480;2022-08-19T08:30:56;21.70;76.20
69331;DHT22;56475;52.114;5.480;2022-08-19T08:33:26;21.70;75.60
69331;DHT22;56475;52.114;5.480;2022-08-19T08:36:10;21.90;75.00
69331;DHT22;56475;52.114;5.480;2022-08-19T08:38:38;22.10;74.70
69331;DHT22;56475;52.114;5.480;2022-08-19T08:43:58;22.20;74.10
69331;DHT22;56475;52.114;5.480;2022-08-19T08:49:30;22.40;72.90
69331;DHT22;56475;52.114;5.480;2022-08-19T08:52:21;22.40;72.70
69331;DHT22;56475;52.114;5.480;2022-08-19T08:54:52;22.40;73.20
69331;DHT22;56475;52.114;5.480;2022-08-19T08:57:49;22.70;72.60
69331;DHT22;56475;52.114;5.480;2022-08-19T09:00:34;23.00;72.40
69331;DHT22;56475;52.114;5.480;2022-08-19T09:03:03;23.10;71.10
69331;DHT22;56475;52.114;5.480;2022-08-19T09:05:45;23.30;70.20
69331;DHT22;56475;52.114;5.480;2022-08-19T09:10:56;23.50;69.80
69331;DHT22;56475;52.114;5.480;2022-08-19T09:13:30;23.60;69.00
69331;DHT22;56475;52.114;5.480;2022-08-19T09:16:07;23.90;68.30
69331;DHT22;56475;52.114;5.480;2022-08-19T09:18:47;24.30;67.40
69331;DHT22;56475;52.114;5.480;2022-08-19T09:21:15;24.60;66.80
69331;DHT22;56475;52.114;5.480;2022-08-19T09:23:43;24.90;65.60
69331;DHT22;56475;52.114;5.480;2022-08-19T09:26:14;25.20;64.50
69331;DHT22;56475;52.114;5.480;2022-08-19T09:28:44;25.30;63.40
69331;DHT22;56475;52.114;5.480;2022-08-19T09:31:18;25.60;62.90
69331;DHT22;56475;52.114;5.480;2022-08-19T09:33:46;25.80;62.20
69331;DHT22;56475;52.114;5.480;2022-08-19T09:36:16;26.10;61.40
69331;DHT22;56475;52.114;5.480;2022-08-19T09:38:59;26.40;60.30
69331;DHT22;56475;52.114;5.480;2022-08-19T09:41:27;26.80;59.30
69331;DHT22;56475;52.114;5.480;2022-08-19T09:43:56;26.90;58.00
69331;DHT22;56475;52.114;5.480;2022-08-19T09:46:26;26.90;57.50
69331;DHT22;56475;52.114;5.480;2022-08-19T09:48:58;26.80;57.50
69331;DHT22;56475;52.114;5.480;2022-08-19T09:51:32;26.60;57.80
69331;DHT22;56475;52.114;5.480;2022-08-19T09:54:02;26.40;57.90
69331;DHT22;56475;52.114;5.480;2022-08-19T09:56:31;26.30;58.20
69331;DHT22;56475;52.114;5.480;2022-08-19T09:59:01;26.30;58.80
69331;DHT22;56475;52.114;5.480;2022-08-19T10:01:31;26.20;57.80
69331;DHT22;56475;52.114;5.480;2022-08-19T10:04:00;26.20;58.50
69331;DHT22;56475;52.114;5.480;2022-08-19T10:06:36;26.20;58.30
69331;DHT22;56475;52.114;5.480;2022-08-19T10:09:12;26.50;58.50
69331;DHT22;56475;52.114;5.480;2022-08-19T10:11:42;26.80;57.20
69331;DHT22;56475;52.114;5.480;2022-08-19T10:14:18;26.80;55.90
69331;DHT22;56475;52.114;5.480;2022-08-19T10:16:49;26.90;56.40
69331;DHT22;56475;52.114;5.480;2022-08-19T10:19:17;27.20;56.10
69331;DHT22;56475;52.114;5.480;2022-08-19T10:21:52;27.60;55.40
69331;DHT22;56475;52.114;5.480;2022-08-19T10:24:26;28.10;54.60
69331;DHT22;56475;52.114;5.480;2022-08-19T10:26:56;28.50;53.00
69331;DHT22;56475;52.114;5.480;2022-08-19T10:29:25;28.90;51.70
69331;DHT22;56475;52.114;5.480;2022-08-19T10:32:00;29.00;51.40
69331;DHT22;56475;52.114;5.480;2022-08-19T10:34:29;29.30;50.80
69331;DHT22;56475;52.114;5.480;2022-08-19T10:36:57;29.60;49.30
69331;DHT22;56475;52.114;5.480;2022-08-19T10:39:29;29.60;48.50
69331;DHT22;56475;52.114;5.480;2022-08-19T10:41:57;29.30;48.40
69331;DHT22;56475;52.114;5.480;2022-08-19T10:44:24;29.20;49.30
69331;DHT22;56475;52.114;5.480;2022-08-19T10:46:58;29.30;48.90
69331;DHT22;56475;52.114;5.480;2022-08-19T10:49:25;29.50;48.60
69331;DHT22;56475;52.114;5.480;2022-08-19T10:51:54;29.70;48.60
69331;DHT22;56475;52.114;5.480;2022-08-19T10:54:45;29.90;47.90
69331;DHT22;56475;52.114;5.480;2022-08-19T10:57:34;30.30;48.30
69331;DHT22;56475;52.114;5.480;2022-08-19T11:00:23;30.80;47.50
69331;DHT22;56475;52.114;5.480;2022-08-19T11:02:51;31.10;46.30
69331;DHT22;56475;52.114;5.480;2022-08-19T11:05:19;31.50;45.40
69331;DHT22;56475;52.114;5.480;2022-08-19T11:07:50;31.70;45.20
69331;DHT22;56475;52.114;5.480;2022-08-19T11:10:19;31.90;44.70
69331;DHT22;56475;52.114;5.480;2022-08-19T11:12:48;32.00;43.80
69331;DHT22;56475;52.114;5.480;2022-08-19T11:15:21;31.90;43.70
69331;DHT22;56475;52.114;5.480;2022-08-19T11:17:48;31.60;43.90
69331;DHT22;56475;52.114;5.480;2022-08-19T11:20:15;31.30;44.60
69331;DHT22;56475;52.114;5.480;2022-08-19T11:22:42;31.00;45.20
69331;DHT22;56475;52.114;5.480;2022-08-19T11:25:10;30.80;46.30
69331;DHT22;56475;52.114;5.480;2022-08-19T11:27:41;31.00;46.50
69331;DHT22;56475;52.114;5.480;2022-08-19T11:30:13;31.10;46.00
69331;DHT22;56475;52.114;5.480;2022-08-19T11:32:41;31.30;45.40
69331;DHT22;56475;52.114;5.480;2022-08-19T11:35:15;31.30;45.50
69331;DHT22;56475;52.114;5.480;2022-08-19T11:37:42;31.50;45.60
69331;DHT22;56475;52.114;5.480;2022-08-19T11:40:10;31.90;45.30
69331;DHT22;56475;52.114;5.480;2022-08-19T11:42:37;32.30;44.60
69331;DHT22;56475;52.114;5.480;2022-08-19T11:45:24;32.60;43.70
69331;DHT22;56475;52.114;5.480;2022-08-19T11:47:52;32.90;42.80
69331;DHT22;56475;52.114;5.480;2022-08-19T11:50:19;33.10;42.30
69331;DHT22;56475;52.114;5.480;2022-08-19T11:52:47;33.30;41.90
69331;DHT22;56475;52.114;5.480;2022-08-19T11:55:16;33.40;41.40
69331;DHT22;56475;52.114;5.480;2022-08-19T11:57:43;33.30;41.10
69331;DHT22;56475;52.114;5.480;2022-08-19T12:00:10;33.30;41.30
69331;DHT22;56475;52.114;5.480;2022-08-19T12:02:40;33.30;41.00
69331;DHT22;56475;52.114;5.480;2022-08-19T12:05:07;33.00;41.50
69331;DHT22;56475;52.114;5.480;2022-08-19T12:07:39;32.90;41.80
69331;DHT22;56475;52.114;5.480;2022-08-19T12:10:07;32.80;42.50
69331;DHT22;56475;52.114;5.480;2022-08-19T12:12:36;32.90;42.60
69331;DHT22;56475;52.114;5.480;2022-08-19T12:15:07;33.10;42.70
69331;DHT22;56475;52.114;5.480;2022-08-19T12:17:35;33.40;41.30
69331;DHT22;56475;52.114;5.480;2022-08-19T12:20:03;33.30;40.90
69331;DHT22;56475;52.114;5.480;2022-08-19T12:22:30;33.20;41.10
69331;DHT22;56475;52.114;5.480;2022-08-19T12:24:57;33.10;41.50
69331;DHT22;56475;52.114;5.480;2022-08-19T12:27:25;33.00;41.70
69331;DHT22;56475;52.114;5.480;2022-08-19T12:30:09;32.60;41.80
69331;DHT22;56475;52.114;5.480;2022-08-19T12:32:37;32.10;42.60
69331;DHT22;56475;52.114;5.480;2022-08-19T12:35:06;31.80;43.80
69331;DHT22;56475;52.114;5.480;2022-08-19T12:37:33;31.50;44.10
69331;DHT22;56475;52.114;5.480;2022-08-19T12:40:00;31.10;44.80
69331;DHT22;56475;52.114;5.480;2022-08-19T12:42:29;30.80;45.40
69331;DHT22;56475;52.114;5.480;2022-08-19T12:44:57;30.40;46.30
69331;DHT22;56475;52.114;5.480;2022-08-19T12:47:24;30.00;46.90
69331;DHT22;56475;52.114;5.480;2022-08-19T12:49:53;29.60;47.90
69331;DHT22;56475;52.114;5.480;2022-08-19T12:52:23;29.20;48.90
69331;DHT22;56475;52.114;5.480;2022-08-19T12:54:53;28.90;50.50
69331;DHT22;56475;52.114;5.480;2022-08-19T12:57:25;28.70;50.10
69331;DHT22;56475;52.114;5.480;2022-08-19T13:00:08;28.50;50.60
69331;DHT22;56475;52.114;5.480;2022-08-19T13:02:39;28.40;51.10
69331;DHT22;56475;52.114;5.480;2022-08-19T13:05:08;28.30;51.50
69331;DHT22;56475;52.114;5.480;2022-08-19T13:07:39;28.20;51.80
69331;DHT22;56475;52.114;5.480;2022-08-19T13:10:11;28.00;52.10
69331;DHT22;56475;52.114;5.480;2022-08-19T13:12:39;27.90;52.80
69331;DHT22;56475;52.114;5.480;2022-08-19T13:15:08;27.70;53.00
69331;DHT22;56475;52.114;5.480;2022-08-19T13:17:38;27.70;53.40
69331;DHT22;56475;52.114;5.480;2022-08-19T13:20:09;27.50;53.80
69331;DHT22;56475;52.114;5.480;2022-08-19T13:22:38;27.40;54.30
69331;DHT22;56475;52.114;5.480;2022-08-19T13:25:07;27.30;55.00
69331;DHT22;56475;52.114;5.480;2022-08-19T13:27:34;27.10;55.60
69331;DHT22;56475;52.114;5.480;2022-08-19T13:30:03;27.00;56.10
69331;DHT22;56475;52.114;5.480;2022-08-19T13:32:50;26.90;57.10
69331;DHT22;56475;52.114;5.480;2022-08-19T13:35:39;26.70;57.90
69331;DHT22;56475;52.114;5.480;2022-08-19T13:38:07;26.60;58.80
69331;DHT22;56475;52.114;5.480;2022-08-19T13:40:38;26.30;59.80
69331;DHT22;56475;52.114;5.480;2022-08-19T13:43:07;26.10;61.20
69331;DHT22;56475;52.114;5.480;2022-08-19T13:45:49;25.80;62.10
69331;DHT22;56475;52.114;5.480;2022-08-19T13:48:16;25.60;62.90
69331;DHT22;56475;52.114;5.480;2022-08-19T13:50:45;25.40;63.50
69331;DHT22;56475;52.114;5.480;2022-08-19T13:53:15;25.30;64.10
69331;DHT22;56475;52.114;5.480;2022-08-19T13:55:43;25.30;64.10
69331;DHT22;56475;52.114;5.480;2022-08-19T13:58:11;25.30;64.50
69331;DHT22;56475;52.114;5.480;2022-08-19T14:00:41;25.10;65.10
69331;DHT22;56475;52.114;5.480;2022-08-19T14:03:09;25.00;65.70
69331;DHT22;56475;52.114;5.480;2022-08-19T14:05:36;24.90;66.50
69331;DHT22;56475;52.114;5.480;2022-08-19T14:08:04;24.70;66.70
69331;DHT22;56475;52.114;5.480;2022-08-19T14:10:31;24.30;66.80
69331;DHT22;56475;52.114;5.480;2022-08-19T14:13:00;24.00;67.40
69331;DHT22;56475;52.114;5.480;2022-08-19T14:15:28;23.60;68.10
69331;DHT22;56475;52.114;5.480;2022-08-19T14:17:55;23.30;68.80
69331;DHT22;56475;52.114;5.480;2022-08-19T14:20:23;23.20;69.70
69331;DHT22;56475;52.114;5.480;2022-08-19T14:22:52;23.20;70.00
69331;DHT22;56475;52.114;5.480;2022-08-19T14:25:23;23.30;70.20
69331;DHT22;56475;52.114;5.480;2022-08-19T14:27:51;23.40;70.50
69331;DHT22;56475;52.114;5.480;2022-08-19T14:30:26;23.40;70.50
69331;DHT22;56475;52.114;5.480;2022-08-19T14:32:55;23.40;70.30
69331;DHT22;56475;52.114;5.480;2022-08-19T14:35:22;23.40;70.60
69331;DHT22;56475;52.114;5.480;2022-08-19T14:37:51;23.30;71.10
69331;DHT22;56475;52.114;5.480;2022-08-19T14:40:28;23.30;71.50
69331;DHT22;56475;52.114;5.480;2022-08-19T14:42:57;23.30;71.80
69331;DHT22;56475;52.114;5.480;2022-08-19T14:45:27;23.20;72.00
69331;DHT22;56475;52.114;5.480;2022-08-19T14:47:54;23.30;72.40
69331;DHT22;56475;52.114;5.480;2022-08-19T14:50:22;23.40;72.70
69331;DHT22;56475;52.114;5.480;2022-08-19T14:52:49;23.40;73.20
69331;DHT22;56475;52.114;5.480;2022-08-19T14:55:17;23.60;73.30
69331;DHT22;56475;52.114;5.480;2022-08-19T14:57:45;23.60;73.60
69331;DHT22;56475;52.114;5.480;2022-08-19T15:00:12;23.80;73.10
69331;DHT22;56475;52.114;5.480;2022-08-19T15:02:40;23.80;72.90
69331;DHT22;56475;52.114;5.480;2022-08-19T15:05:08;24.00;72.80
69331;DHT22;56475;52.114;5.480;2022-08-19T15:07:36;24.00;72.80
69331;DHT22;56475;52.114;5.480;2022-08-19T15:10:05;24.10;72.70
69331;DHT22;56475;52.114;5.480;2022-08-19T15:12:37;24.20;72.10
69331;DHT22;56475;52.114;5.480;2022-08-19T15:15:11;24.30;72.20
69331;DHT22;56475;52.114;5.480;2022-08-19T15:17:40;24.40;71.80
69331;DHT22;56475;52.114;5.480;2022-08-19T15:20:20;24.40;71.50
69331;DHT22;56475;52.114;5.480;2022-08-19T15:22:50;24.40;71.50
69331;DHT22;56475;52.114;5.480;2022-08-19T15:25:18;24.50;71.30
69331;DHT22;56475;52.114;5.480;2022-08-19T15:27:46;24.60;71.10
69331;DHT22;56475;52.114;5.480;2022-08-19T15:30:19;23.50;70.00
69331;DHT22;56475;52.114;5.480;2022-08-19T15:32:48;25.00;70.50
69331;DHT22;56475;52.114;5.480;2022-08-19T15:35:15;25.20;70.10
69331;DHT22;56475;52.114;5.480;2022-08-19T15:37:48;25.50;70.20
69331;DHT22;56475;52.114;5.480;2022-08-19T15:40:15;26.10;69.50
69331;DHT22;56475;52.114;5.480;2022-08-19T15:42:42;26.60;67.60
69331;DHT22;56475;52.114;5.480;2022-08-19T15:45:12;27.00;66.50
69331;DHT22;56475;52.114;5.480;2022-08-19T15:47:39;27.40;65.60
69331;DHT22;56475;52.114;5.480;2022-08-19T15:50:16;27.80;64.50
69331;DHT22;56475;52.114;5.480;2022-08-19T15:52:48;28.20;62.40
69331;DHT22;56475;52.114;5.480;2022-08-19T15:55:24;28.40;61.60
69331;DHT22;56475;52.114;5.480;2022-08-19T15:58:12;28.50;60.90
69331;DHT22;56475;52.114;5.480;2022-08-19T16:01:06;28.20;60.80
69331;DHT22;56475;52.114;5.480;2022-08-19T16:03:54;27.90;60.90